Time;durP1;ratioP1;P1;durP2;ratioP2;P2;SDS_P1;SDS_P2;PMS_P1;PMS_P2;Temp;Humidity;BMP_temperature;BMP_pressure;BME280_temperature;BME280_humidity;BME280_pressure;Samples;Min_cycle;Max_cycle;Signal;HPM_P1;HPM_P2
2022/12/11 00:00:29;;;;;;;56.87;19.60;;;-0.20;99.90;;;;;;5066662;28;20889;-58
2022/12/11 00:02:56;;;;;;;60.93;19.77;;;-0.20;99.90;;;;;;5075322;28;20552;-58
2022/12/11 00:05:22;;;;;;;56.17;19.43;;;-0.20;99.90;;;;;;5073894;28;20489;-58
2022/12/11 00:07:50;;;;;;;42.90;13.63;;;-0.20;99.90;;;;;;5066269;28;20468;-57
2022/12/11 00:10:17;;;;;;;60.13;19.60;;;-0.30;99.90;;;;;;5060737;28;20518;-58
2022/12/11 00:12:44;;;;;;;49.13;17.47;;;-0.30;99.90;;;;;;5055077;28;20500;-58
2022/12/11 00:15:11;;;;;;;49.60;17.07;;;-0.30;99.90;;;;;;5054979;28;20481;-58
2022/12/11 00:17:37;;;;;;;39.17;15.93;;;-0.30;99.90;;;;;;5054800;28;20551;-58
2022/12/11 00:20:05;;;;;;;43.77;17.03;;;-0.30;99.90;;;;;;5053966;28;20510;-58
2022/12/11 00:22:32;;;;;;;44.87;16.13;;;-0.30;99.90;;;;;;5054728;28;20468;-58
2022/12/11 00:25:00;;;;;;;44.83;16.13;;;-0.30;99.90;;;;;;5055020;28;20902;-58
2022/12/11 00:27:27;;;;;;;39.97;15.40;;;-0.30;99.90;;;;;;5054451;28;20599;-58
2022/12/11 00:29:53;;;;;;;41.37;15.73;;;-0.40;99.90;;;;;;5054637;28;20483;-58
2022/12/11 00:32:20;;;;;;;43.23;16.43;;;-0.30;99.90;;;;;;5054863;28;20445;-58
2022/12/11 00:34:47;;;;;;;47.50;17.53;;;-0.30;99.90;;;;;;5054610;28;20966;-58
2022/12/11 00:37:13;;;;;;;46.73;15.77;;;-0.30;99.90;;;;;;5054132;28;20523;-58
2022/12/11 00:39:40;;;;;;;46.97;17.47;;;-0.30;99.90;;;;;;5062972;28;20438;-58
2022/12/11 00:42:08;;;;;;;48.37;17.27;;;-0.20;99.90;;;;;;5054389;28;20450;-58
2022/12/11 00:44:35;;;;;;;51.97;16.80;;;-0.30;99.90;;;;;;5054249;28;20456;-57
2022/12/11 00:47:02;;;;;;;44.20;17.80;;;-0.30;99.90;;;;;;5053860;28;20598;-57
2022/12/11 00:49:29;;;;;;;51.53;17.13;;;-0.20;99.90;;;;;;5054619;28;20456;-58
2022/12/11 00:51:56;;;;;;;46.80;16.63;;;-0.20;99.90;;;;;;5054269;28;20458;-58
2022/12/11 00:54:23;;;;;;;50.33;17.63;;;-0.20;99.90;;;;;;5054052;28;20479;-58
2022/12/11 00:56:49;;;;;;;51.03;17.60;;;-0.30;99.90;;;;;;5053817;28;20521;-58
2022/12/11 00:59:17;;;;;;;64.23;19.53;;;-0.20;99.90;;;;;;5054110;28;20539;-57
2022/12/11 01:01:44;;;;;;;60.33;19.30;;;-0.20;99.90;;;;;;5053965;28;20502;-57
2022/12/11 01:04:11;;;;;;;58.20;18.47;;;-0.20;99.90;;;;;;5054579;28;20451;-58
2022/12/11 01:06:39;;;;;;;66.17;18.70;;;-0.20;99.90;;;;;;5054022;28;20547;-58
2022/12/11 01:11:50;;;;;;;58.43;18.73;;;-0.10;99.90;;;;;;5073930;28;20517;-58
2022/12/11 01:14:17;;;;;;;62.67;19.20;;;-0.10;99.90;;;;;;5073849;28;20449;-58
2022/12/11 01:16:44;;;;;;;68.00;19.73;;;0.00;99.90;;;;;;5073796;28;20473;-58
2022/12/11 01:19:11;;;;;;;75.67;21.33;;;-0.10;99.90;;;;;;5073803;28;20460;-58
2022/12/11 01:21:38;;;;;;;62.83;19.13;;;0.00;99.90;;;;;;5065253;28;20447;-57
2022/12/11 01:24:05;;;;;;;75.07;19.40;;;0.00;99.90;;;;;;5065303;28;20447;-58
2022/12/11 01:26:32;;;;;;;70.80;21.23;;;0.00;99.90;;;;;;5064885;28;20499;-58
2022/12/11 01:28:59;;;;;;;80.93;22.07;;;0.00;99.90;;;;;;5053627;28;20514;-58
2022/12/11 01:31:27;;;;;;;73.13;21.27;;;0.00;99.90;;;;;;5053890;28;20538;-58
2022/12/11 01:33:54;;;;;;;65.23;20.23;;;0.00;99.90;;;;;;5053748;28;20827;-58
2022/12/11 01:36:22;;;;;;;64.77;19.57;;;0.00;99.90;;;;;;5053407;28;20524;-59
2022/12/11 01:38:49;;;;;;;75.27;19.77;;;0.00;99.90;;;;;;5069555;28;20445;-58
2022/12/11 01:41:17;;;;;;;71.23;20.43;;;0.00;99.90;;;;;;5053227;28;20453;-58
2022/12/11 01:43:58;;;;;;;74.53;20.97;;;0.00;99.90;;;;;;5053532;28;20531;-58
2022/12/11 01:46:27;;;;;;;72.33;22.10;;;0.00;99.90;;;;;;5053180;28;20615;-58
2022/12/11 01:48:54;;;;;;;68.20;21.20;;;0.00;99.90;;;;;;5052948;28;20450;-57
2022/12/11 01:51:22;;;;;;;68.20;21.47;;;0.10;99.90;;;;;;5053055;28;20529;-58
2022/12/11 01:53:54;;;;;;;69.17;20.27;;;0.00;99.90;;;;;;5052996;28;20448;-58
2022/12/11 01:56:20;;;;;;;70.93;18.83;;;0.10;99.90;;;;;;5052956;28;20466;-58
2022/12/11 01:58:50;;;;;;;68.77;19.47;;;0.10;99.90;;;;;;5053144;28;20505;-58
2022/12/11 02:01:25;;;;;;;66.27;19.30;;;0.00;99.90;;;;;;5053033;28;20540;-58
2022/12/11 02:03:55;;;;;;;60.10;19.27;;;0.00;99.90;;;;;;5053117;28;20460;-58
2022/12/11 02:06:32;;;;;;;77.40;20.40;;;0.00;99.90;;;;;;5051737;28;20624;-58
2022/12/11 02:08:59;;;;;;;67.70;20.80;;;0.10;99.90;;;;;;5060882;28;20445;-58
2022/12/11 02:11:35;;;;;;;69.83;20.27;;;0.10;99.90;;;;;;5053013;28;20519;-58
2022/12/11 02:14:06;;;;;;;64.97;22.13;;;0.10;99.90;;;;;;5052717;28;20462;-58
2022/12/11 02:16:40;;;;;;;76.43;21.27;;;0.10;99.90;;;;;;5052792;28;20473;-58
2022/12/11 02:19:21;;;;;;;76.60;21.77;;;0.20;99.90;;;;;;5052818;28;20838;-58
2022/12/11 02:21:52;;;;;;;65.13;21.00;;;0.20;99.90;;;;;;5052346;28;20468;-58
2022/12/11 02:24:32;;;;;;;73.20;21.87;;;0.20;99.90;;;;;;5052449;28;20449;-58
2022/12/11 02:27:16;;;;;;;70.90;21.87;;;0.20;99.90;;;;;;5052316;28;20491;-58
2022/12/11 02:29:50;;;;;;;83.97;21.50;;;0.10;99.90;;;;;;5052581;28;20453;-58
2022/12/11 02:32:22;;;;;;;80.80;23.73;;;0.20;99.90;;;;;;5052313;28;20508;-58
2022/12/11 02:34:55;;;;;;;79.17;23.50;;;0.10;99.90;;;;;;5052402;28;20451;-58
2022/12/11 02:37:26;;;;;;;68.47;22.40;;;0.20;99.90;;;;;;5058919;28;20538;-58
2022/12/11 02:39:56;;;;;;;72.30;23.27;;;0.20;99.90;;;;;;5064176;28;20448;-58
2022/12/11 02:42:26;;;;;;;84.30;23.57;;;0.10;99.90;;;;;;5072813;28;20453;-58
2022/12/11 02:44:56;;;;;;;79.97;23.60;;;0.10;99.90;;;;;;5072292;28;20877;-58
2022/12/11 02:47:26;;;;;;;71.93;23.10;;;0.10;99.90;;;;;;5072359;28;20472;-56
2022/12/11 02:49:55;;;;;;;76.50;21.33;;;0.20;99.90;;;;;;5072045;28;20510;-58
2022/12/11 02:52:24;;;;;;;90.07;25.07;;;0.00;99.90;;;;;;5072160;28;20440;-58
2022/12/11 02:54:55;;;;;;;87.13;25.70;;;0.00;99.90;;;;;;5071547;28;20457;-59
2022/12/11 02:57:27;;;;;;;84.20;24.33;;;0.00;99.90;;;;;;5071891;28;20470;-57
2022/12/11 02:59:55;;;;;;;95.17;24.83;;;0.10;99.90;;;;;;5071919;28;20441;-58
2022/12/11 03:02:22;;;;;;;80.73;23.57;;;0.20;99.90;;;;;;5072031;28;20506;-57
2022/12/11 03:04:49;;;;;;;79.50;25.13;;;0.20;99.90;;;;;;5071740;28;20445;-58
2022/12/11 03:07:19;;;;;;;83.80;23.90;;;0.20;99.90;;;;;;5065853;28;20513;-57
2022/12/11 03:09:48;;;;;;;66.40;21.97;;;0.20;99.90;;;;;;5060040;28;20455;-56
2022/12/11 03:12:18;;;;;;;68.20;22.60;;;0.20;99.90;;;;;;5051897;28;20540;-58
2022/12/11 03:14:46;;;;;;;68.57;20.93;;;0.20;99.90;;;;;;5051677;28;21127;-56
2022/12/11 03:17:17;;;;;;;72.10;22.83;;;0.10;99.90;;;;;;5051290;28;20478;-57
2022/12/11 03:19:50;;;;;;;65.50;20.53;;;0.00;99.90;;;;;;5051926;28;20457;-58
2022/12/11 03:22:22;;;;;;;60.03;19.50;;;0.10;99.90;;;;;;5051560;28;20472;-59
2022/12/11 03:24:52;;;;;;;57.57;18.13;;;0.10;99.90;;;;;;5051757;28;20448;-59
2022/12/11 03:27:26;;;;;;;58.00;18.27;;;0.10;99.90;;;;;;5051338;28;20500;-58
2022/12/11 03:29:56;;;;;;;62.93;17.97;;;0.00;99.90;;;;;;5051504;28;20836;-59
2022/12/11 03:32:29;;;;;;;64.10;19.83;;;0.00;99.90;;;;;;5051778;28;20457;-58
2022/12/11 03:35:03;;;;;;;60.83;18.73;;;0.00;99.90;;;;;;5051720;28;20822;-59
2022/12/11 03:37:35;;;;;;;58.33;19.83;;;0.00;99.90;;;;;;5059201;28;20466;-59
2022/12/11 03:40:07;;;;;;;60.47;20.27;;;0.00;99.90;;;;;;5063709;28;20893;-59
2022/12/11 03:42:35;;;;;;;61.10;20.00;;;0.00;99.90;;;;;;5071790;28;20506;-59
2022/12/11 03:45:04;;;;;;;61.50;19.03;;;0.00;99.90;;;;;;5071633;28;20455;-59
2022/12/11 03:47:33;;;;;;;65.77;20.00;;;0.10;99.90;;;;;;5071111;28;20487;-59
2022/12/11 03:50:01;;;;;;;57.27;18.77;;;0.10;99.90;;;;;;5071409;28;20951;-59
2022/12/11 03:52:29;;;;;;;53.77;17.90;;;0.10;99.90;;;;;;5071452;28;20443;-59
2022/12/11 03:55:00;;;;;;;64.47;18.03;;;0.10;99.90;;;;;;5071806;28;20851;-58
2022/12/11 03:57:30;;;;;;;62.37;17.23;;;0.10;99.90;;;;;;5071459;28;20883;-59
2022/12/11 03:59:57;;;;;;;55.00;18.80;;;0.10;99.90;;;;;;5071396;28;21003;-58
2022/12/11 04:02:24;;;;;;;60.07;18.83;;;0.20;99.90;;;;;;5071304;28;20450;-59
2022/12/11 04:04:52;;;;;;;54.93;18.50;;;0.20;99.90;;;;;;5071370;28;20497;-59
2022/12/11 04:07:19;;;;;;;55.97;16.70;;;0.10;99.90;;;;;;5070502;28;20893;-58
2022/12/11 04:09:46;;;;;;;40.57;15.30;;;0.10;99.90;;;;;;5062755;28;20449;-59
2022/12/11 04:12:12;;;;;;;60.53;17.77;;;0.10;99.90;;;;;;5071378;28;20451;-59
2022/12/11 04:25:35;;;;;;;56.10;17.37;;;0.10;99.90;;;;;;5071221;28;20432;-58
2022/12/11 04:28:02;;;;;;;53.27;16.97;;;0.10;99.90;;;;;;5070741;28;20471;-59
2022/12/11 04:30:28;;;;;;;44.27;14.00;;;0.10;99.90;;;;;;5072482;28;20961;-57
2022/12/11 04:32:55;;;;;;;47.63;17.10;;;0.10;99.90;;;;;;5074528;28;20937;-59
2022/12/11 04:35:23;;;;;;;53.03;18.13;;;0.10;99.90;;;;;;5074568;28;20448;-59
2022/12/11 04:37:52;;;;;;;53.27;17.10;;;0.10;99.90;;;;;;5065900;28;21024;-58
2022/12/11 04:40:20;;;;;;;52.93;17.93;;;0.10;99.90;;;;;;5060047;28;20448;-59
2022/12/11 04:42:46;;;;;;;54.53;18.53;;;0.10;99.90;;;;;;5054229;28;20454;-58
2022/12/11 04:45:14;;;;;;;59.40;19.10;;;0.10;99.90;;;;;;5054223;28;20446;-58
2022/12/11 04:47:41;;;;;;;51.97;18.60;;;0.10;99.90;;;;;;5054091;28;20512;-58
2022/12/11 04:50:10;;;;;;;65.13;20.17;;;0.10;99.90;;;;;;5054216;28;20481;-58
2022/12/11 04:52:39;;;;;;;57.40;19.63;;;0.10;99.90;;;;;;5054179;28;20866;-58
2022/12/11 04:55:07;;;;;;;55.20;18.47;;;0.00;99.90;;;;;;5054254;28;20523;-59
2022/12/11 04:57:34;;;;;;;65.10;20.47;;;0.00;99.90;;;;;;5053793;28;20564;-59
2022/12/11 05:00:01;;;;;;;61.83;18.37;;;0.00;99.90;;;;;;5054416;28;20451;-59
2022/12/11 05:02:27;;;;;;;62.27;20.17;;;-0.10;99.90;;;;;;5054333;28;20522;-59
2022/12/11 05:04:54;;;;;;;61.83;20.93;;;0.00;99.90;;;;;;5054074;28;20452;-58
2022/12/11 05:07:21;;;;;;;58.80;18.63;;;0.00;99.90;;;;;;5060123;28;20535;-59
2022/12/11 05:09:49;;;;;;;58.97;19.43;;;0.10;99.90;;;;;;5065551;28;20493;-59
2022/12/11 05:12:15;;;;;;;63.63;19.83;;;0.10;99.90;;;;;;5074216;28;20449;-59
2022/12/11 05:14:43;;;;;;;63.80;19.53;;;0.10;99.90;;;;;;5073986;28;20449;-59
2022/12/11 05:17:10;;;;;;;60.40;20.20;;;0.10;99.90;;;;;;5073682;28;20562;-59
2022/12/11 05:19:36;;;;;;;64.40;19.47;;;0.20;99.90;;;;;;5073788;28;20447;-58
2022/12/11 05:22:04;;;;;;;56.70;19.13;;;0.10;99.90;;;;;;5073495;28;20461;-59
2022/12/11 05:24:32;;;;;;;51.53;18.90;;;0.20;99.90;;;;;;5073921;28;20806;-58
2022/12/11 05:26:59;;;;;;;52.10;19.03;;;0.20;99.90;;;;;;5073436;28;20489;-59
2022/12/11 05:29:26;;;;;;;60.13;20.97;;;0.20;99.90;;;;;;5073635;28;20452;-59
2022/12/11 05:31:53;;;;;;;54.77;18.57;;;0.10;99.90;;;;;;5073554;28;20994;-58
2022/12/11 05:34:19;;;;;;;61.93;19.50;;;0.10;99.90;;;;;;5073299;28;20450;-59
2022/12/11 05:36:46;;;;;;;53.33;17.17;;;0.10;99.90;;;;;;5071261;28;20466;-59
2022/12/11 05:39:13;;;;;;;52.47;18.77;;;0.20;99.90;;;;;;5061725;28;20448;-58
2022/12/11 05:41:39;;;;;;;51.40;18.80;;;0.30;99.90;;;;;;5053630;28;20508;-59
2022/12/11 05:44:11;;;;;;;56.50;18.80;;;0.30;99.90;;;;;;5053266;28;20936;-59
2022/12/11 05:46:37;;;;;;;55.60;18.60;;;0.40;99.90;;;;;;5052869;28;20479;-59
2022/12/11 05:49:04;;;;;;;60.57;18.77;;;0.40;99.90;;;;;;5053081;28;20448;-59
2022/12/11 05:51:33;;;;;;;53.83;18.50;;;0.40;99.90;;;;;;5053153;28;20850;-59
2022/12/11 05:54:00;;;;;;;46.10;16.57;;;0.30;99.90;;;;;;5053259;28;20521;-59
2022/12/11 05:56:29;;;;;;;55.57;18.77;;;0.30;99.90;;;;;;5053013;28;20483;-59
2022/12/11 05:58:56;;;;;;;45.77;17.67;;;0.40;99.90;;;;;;5053099;28;20459;-59
2022/12/11 06:01:26;;;;;;;51.83;18.07;;;0.40;99.90;;;;;;5052964;28;20601;-59
2022/12/11 06:03:53;;;;;;;56.47;18.90;;;0.20;99.90;;;;;;5052896;28;20519;-59
2022/12/11 06:06:21;;;;;;;49.80;16.93;;;0.20;99.90;;;;;;5052252;28;20494;-59
2022/12/11 06:08:50;;;;;;;46.57;17.67;;;0.00;99.90;;;;;;5063065;28;20452;-59
2022/12/11 06:11:17;;;;;;;40.47;16.73;;;0.00;99.90;;;;;;5072704;28;20951;-58
2022/12/11 06:13:43;;;;;;;43.57;18.40;;;0.00;99.90;;;;;;5072863;28;20450;-59
2022/12/11 06:16:10;;;;;;;52.43;19.23;;;0.10;99.90;;;;;;5072292;28;20472;-59
2022/12/11 06:18:40;;;;;;;48.60;16.83;;;0.10;99.90;;;;;;5072660;28;20503;-58
2022/12/11 06:21:14;;;;;;;48.17;16.00;;;0.00;99.90;;;;;;5072420;28;20582;-59
2022/12/11 06:23:41;;;;;;;53.87;18.23;;;0.10;99.90;;;;;;5072496;28;20488;-57
2022/12/11 06:26:08;;;;;;;42.13;17.50;;;0.00;99.90;;;;;;5072173;28;20469;-59
2022/12/11 06:28:35;;;;;;;47.73;16.70;;;0.00;99.90;;;;;;5072566;28;20448;-59
2022/12/11 06:31:02;;;;;;;40.63;16.53;;;0.00;99.90;;;;;;5072411;28;20452;-59
2022/12/11 06:33:29;;;;;;;47.47;16.70;;;0.00;99.90;;;;;;5072458;28;20444;-58
2022/12/11 06:36:00;;;;;;;53.27;17.23;;;0.10;99.90;;;;;;5072125;28;20479;-58
2022/12/11 06:38:27;;;;;;;45.50;15.37;;;0.00;99.90;;;;;;5063527;28;20434;-58
2022/12/11 06:40:57;;;;;;;46.43;17.33;;;0.10;99.90;;;;;;5052231;28;20453;-59
2022/12/11 06:43:24;;;;;;;45.63;17.13;;;0.10;99.90;;;;;;5052290;28;20457;-59
2022/12/11 06:45:50;;;;;;;49.57;18.13;;;0.10;99.90;;;;;;5051849;28;20570;-58
2022/12/11 06:48:17;;;;;;;47.30;16.40;;;0.10;99.90;;;;;;5051913;28;20497;-58
2022/12/11 06:50:44;;;;;;;38.30;16.03;;;0.20;99.90;;;;;;5052323;28;20460;-58
2022/12/11 06:53:14;;;;;;;45.60;16.07;;;0.20;99.90;;;;;;5051628;28;20503;-58
2022/12/11 06:55:41;;;;;;;41.73;15.93;;;0.20;99.90;;;;;;5051984;28;20817;-56
2022/12/11 06:58:08;;;;;;;49.67;17.83;;;0.20;99.90;;;;;;5051884;28;20538;-54
2022/12/11 07:00:35;;;;;;;41.50;15.83;;;0.10;99.90;;;;;;5052202;28;20502;-58
2022/12/11 07:03:02;;;;;;;46.47;17.00;;;0.20;99.90;;;;;;5051955;28;20459;-58
2022/12/11 07:05:30;;;;;;;50.50;16.47;;;0.20;99.90;;;;;;5052272;28;20447;-58
2022/12/11 07:07:56;;;;;;;41.47;17.37;;;0.20;99.90;;;;;;5059719;28;20480;-56
2022/12/11 07:10:26;;;;;;;44.23;16.13;;;0.20;99.90;;;;;;5067123;28;20456;-58
2022/12/11 07:12:53;;;;;;;43.03;16.63;;;0.30;99.90;;;;;;5072149;28;20841;-58
2022/12/11 07:15:19;;;;;;;38.90;15.90;;;0.30;99.90;;;;;;5072303;28;20889;-57
2022/12/11 07:17:46;;;;;;;36.67;16.47;;;0.30;99.90;;;;;;5071219;28;20467;-58
2022/12/11 07:20:14;;;;;;;39.50;16.53;;;0.30;99.90;;;;;;5071933;28;20457;-58
2022/12/11 07:22:41;;;;;;;33.70;15.77;;;0.20;99.90;;;;;;5071830;28;20469;-60
2022/12/11 07:25:08;;;;;;;43.60;17.57;;;0.20;99.90;;;;;;5071743;28;20447;-58
2022/12/11 07:27:36;;;;;;;38.50;16.40;;;0.30;99.90;;;;;;5071416;28;20497;-58
2022/12/11 07:30:03;;;;;;;38.13;16.50;;;0.40;99.90;;;;;;5071723;28;20448;-58
2022/12/11 07:32:30;;;;;;;42.43;16.87;;;0.40;99.90;;;;;;5071455;28;20447;-57
2022/12/11 07:34:57;;;;;;;41.07;16.80;;;0.40;99.90;;;;;;5071611;28;20458;-58
2022/12/11 07:37:23;;;;;;;41.10;17.37;;;0.30;99.90;;;;;;5064240;28;20473;-58
2022/12/11 07:39:50;;;;;;;43.80;16.50;;;0.30;99.90;;;;;;5059703;28;20455;-58
2022/12/11 07:42:17;;;;;;;42.27;16.73;;;0.30;99.90;;;;;;5051420;28;20508;-58
2022/12/11 07:44:45;;;;;;;44.77;17.67;;;0.20;99.90;;;;;;5051694;28;20867;-59
2022/12/11 07:47:12;;;;;;;39.87;16.13;;;0.30;99.90;;;;;;5050781;28;20923;-59
2022/12/11 07:49:38;;;;;;;45.60;17.83;;;0.30;99.90;;;;;;5050350;28;20835;-58
2022/12/11 07:52:05;;;;;;;41.20;15.03;;;0.20;99.90;;;;;;5051279;28;20434;-59
2022/12/11 07:54:32;;;;;;;40.63;15.97;;;0.20;99.90;;;;;;5051311;28;20444;-59
2022/12/11 07:56:59;;;;;;;37.77;16.97;;;0.30;99.90;;;;;;5051160;28;20467;-59
2022/12/11 07:59:25;;;;;;;41.17;16.23;;;0.20;99.90;;;;;;5051377;28;20444;-59
2022/12/11 08:01:53;;;;;;;39.97;16.90;;;0.20;99.90;;;;;;5051318;28;20452;-59
2022/12/11 08:04:20;;;;;;;40.30;15.00;;;0.20;99.90;;;;;;5051230;28;20449;-58
2022/12/11 08:06:47;;;;;;;35.43;15.43;;;0.20;99.90;;;;;;5056394;28;20500;-58
2022/12/11 08:09:14;;;;;;;40.00;15.70;;;0.20;99.90;;;;;;5066441;28;20440;-59
2022/12/11 08:11:41;;;;;;;38.73;15.90;;;0.20;99.90;;;;;;5075368;28;20478;-58
2022/12/11 08:14:08;;;;;;;39.93;16.27;;;0.10;99.90;;;;;;5075211;28;20455;-59
2022/12/11 08:16:35;;;;;;;48.67;17.53;;;0.20;99.90;;;;;;5075028;28;20512;-59
2022/12/11 08:19:03;;;;;;;42.40;17.30;;;0.30;99.90;;;;;;5074943;28;20450;-58
2022/12/11 08:21:29;;;;;;;44.00;16.97;;;0.30;99.90;;;;;;5074703;28;20448;-59
2022/12/11 08:23:56;;;;;;;41.13;17.20;;;0.30;99.90;;;;;;5074649;28;20881;-58
2022/12/11 08:26:25;;;;;;;41.70;17.07;;;0.40;99.90;;;;;;5074467;28;20476;-60
2022/12/11 08:28:53;;;;;;;44.77;17.87;;;0.50;99.90;;;;;;5074451;28;20910;-58
2022/12/11 08:31:20;;;;;;;45.60;17.80;;;0.50;99.90;;;;;;5074696;28;20447;-58
2022/12/11 08:33:48;;;;;;;47.40;17.70;;;0.50;99.90;;;;;;5074632;28;20451;-58
2022/12/11 08:36:18;;;;;;;46.63;18.27;;;0.40;99.90;;;;;;5074448;28;20469;-58
2022/12/11 08:38:46;;;;;;;46.73;17.90;;;0.50;99.90;;;;;;5064717;28;20443;-59
2022/12/11 08:41:14;;;;;;;42.63;16.20;;;0.60;99.90;;;;;;5054797;28;20443;-58
2022/12/11 08:43:41;;;;;;;39.63;16.97;;;0.60;99.90;;;;;;5054101;28;20511;-58
2022/12/11 08:46:09;;;;;;;42.90;16.37;;;0.60;99.90;;;;;;5054064;28;20474;-58
2022/12/11 08:48:36;;;;;;;40.13;16.80;;;0.60;99.90;;;;;;5054378;28;20999;-58
2022/12/11 08:51:05;;;;;;;49.33;18.17;;;0.50;99.90;;;;;;5054755;28;20545;-58
2022/12/11 08:53:34;;;;;;;38.97;16.20;;;0.50;99.90;;;;;;5054859;28;20446;-58
2022/12/11 08:56:01;;;;;;;38.13;16.63;;;0.50;99.90;;;;;;5054523;28;20478;-57
2022/12/11 08:58:28;;;;;;;42.73;17.43;;;0.50;99.90;;;;;;5054523;28;20451;-58
2022/12/11 09:00:55;;;;;;;43.57;17.87;;;0.50;99.90;;;;;;5054068;28;20553;-58
2022/12/11 09:03:22;;;;;;;38.37;16.47;;;0.40;99.90;;;;;;5054538;28;20449;-57
2022/12/11 09:05:49;;;;;;;45.40;17.10;;;0.60;99.90;;;;;;5054168;28;20459;-58
2022/12/11 09:08:15;;;;;;;42.30;17.03;;;0.60;99.90;;;;;;5062156;28;20844;-59
2022/12/11 09:10:43;;;;;;;44.80;16.97;;;0.50;99.90;;;;;;5071582;28;20577;-58
2022/12/11 09:13:10;;;;;;;43.33;17.77;;;0.50;99.90;;;;;;5074239;28;20443;-58
2022/12/11 09:15:40;;;;;;;45.77;18.13;;;0.40;99.90;;;;;;5073273;28;20534;-58
2022/12/11 09:18:07;;;;;;;48.40;18.37;;;0.40;99.90;;;;;;5074155;28;20455;-58
2022/12/11 09:20:33;;;;;;;43.87;17.97;;;0.50;99.90;;;;;;5073829;28;20454;-58
2022/12/11 09:23:02;;;;;;;47.17;16.93;;;0.40;99.90;;;;;;5073633;28;21022;-58
2022/12/11 09:25:28;;;;;;;40.60;16.30;;;0.50;99.90;;;;;;5073926;28;20514;-59
2022/12/11 09:27:56;;;;;;;43.37;18.27;;;0.50;99.90;;;;;;5073397;28;20490;-58
2022/12/11 09:30:23;;;;;;;42.20;18.00;;;0.50;99.90;;;;;;5073447;28;20873;-58
2022/12/11 09:32:50;;;;;;;45.90;18.67;;;0.50;99.90;;;;;;5073904;28;20456;-58
2022/12/11 09:35:16;;;;;;;45.40;18.93;;;0.50;99.90;;;;;;5073564;28;20536;-58
2022/12/11 09:37:43;;;;;;;40.13;17.67;;;0.60;99.90;;;;;;5064812;28;20475;-58
2022/12/11 09:40:12;;;;;;;43.37;18.30;;;0.60;99.90;;;;;;5060181;28;20446;-58
2022/12/11 09:42:51;;;;;;;44.93;18.70;;;0.50;99.90;;;;;;5053642;28;20454;-56
2022/12/11 09:45:19;;;;;;;42.97;17.93;;;0.70;99.90;;;;;;5053397;28;20461;-58
2022/12/11 09:47:49;;;;;;;42.90;17.47;;;0.70;99.90;;;;;;5053004;28;20486;-57
2022/12/11 09:50:20;;;;;;;35.67;16.20;;;0.60;99.90;;;;;;5053241;28;20867;-58
2022/12/11 09:52:59;;;;;;;40.03;18.07;;;0.60;99.90;;;;;;5053132;28;20950;-58
2022/12/11 09:55:32;;;;;;;44.40;17.67;;;0.50;99.90;;;;;;5053282;28;20459;-58
2022/12/11 09:58:06;;;;;;;41.90;18.07;;;0.50;99.90;;;;;;5053050;28;20468;-58
2022/12/11 10:00:41;;;;;;;46.67;17.20;;;0.60;99.90;;;;;;5052737;28;20455;-55
2022/12/11 10:03:37;;;;;;;48.03;19.23;;;0.60;99.90;;;;;;5053046;28;20453;-56
2022/12/11 10:06:15;;;;;;;45.67;17.33;;;0.70;99.90;;;;;;5052403;28;20472;-58
2022/12/11 10:08:48;;;;;;;44.47;17.70;;;0.70;99.90;;;;;;5062050;28;20483;-58
2022/12/11 10:11:30;;;;;;;44.23;17.67;;;0.50;99.90;;;;;;5072742;28;20453;-58
2022/12/11 10:14:06;;;;;;;40.03;18.37;;;0.40;99.90;;;;;;5072722;28;20933;-58
2022/12/11 10:16:37;;;;;;;39.60;17.37;;;0.50;99.90;;;;;;5072628;28;20527;-57
2022/12/11 10:19:05;;;;;;;44.40;18.07;;;0.60;99.90;;;;;;5072791;28;20443;-58
2022/12/11 10:21:39;;;;;;;42.83;16.37;;;0.60;99.90;;;;;;5072518;28;20458;-59
2022/12/11 10:24:14;;;;;;;42.60;18.43;;;0.60;99.90;;;;;;5072411;28;20451;-59
2022/12/11 10:26:41;;;;;;;47.67;18.87;;;0.70;99.90;;;;;;5072726;28;20564;-59
2022/12/11 10:29:14;;;;;;;39.80;18.17;;;0.80;99.90;;;;;;5071635;28;21161;-58
2022/12/11 10:31:49;;;;;;;41.30;18.23;;;0.80;99.90;;;;;;5072393;28;20509;-59
2022/12/11 10:34:22;;;;;;;42.73;17.53;;;0.80;99.90;;;;;;5072556;28;20835;-57
2022/12/11 10:36:49;;;;;;;44.07;19.00;;;0.80;99.90;;;;;;5069780;28;20467;-59
2022/12/11 10:39:19;;;;;;;45.27;18.60;;;0.80;99.90;;;;;;5059715;28;20440;-59
2022/12/11 10:41:47;;;;;;;46.83;19.63;;;0.90;99.90;;;;;;5052444;28;20895;-58
2022/12/11 10:44:16;;;;;;;48.03;19.47;;;1.00;99.90;;;;;;5052435;28;20452;-58
2022/12/11 10:46:45;;;;;;;48.97;20.90;;;1.00;99.90;;;;;;5051677;28;20507;-58
2022/12/11 10:49:22;;;;;;;44.87;17.93;;;1.10;99.90;;;;;;5052004;28;20475;-58
2022/12/11 10:51:49;;;;;;;44.53;19.20;;;1.10;99.90;;;;;;5052300;28;20447;-58
2022/12/11 10:54:30;;;;;;;45.03;19.10;;;1.00;99.90;;;;;;5052449;28;20510;-57
2022/12/11 10:56:58;;;;;;;44.30;19.93;;;1.10;99.90;;;;;;5051955;28;20476;-58
2022/12/11 10:59:32;;;;;;;45.53;19.07;;;1.10;99.90;;;;;;5051639;28;20452;-53
2022/12/11 11:02:01;;;;;;;40.03;16.47;;;1.10;99.90;;;;;;5051950;28;20444;-57
2022/12/11 11:04:31;;;;;;;42.63;18.23;;;1.20;99.90;;;;;;5052190;28;20498;-57
2022/12/11 11:07:03;;;;;;;40.67;17.50;;;1.20;99.90;;;;;;5055233;28;20532;-56
2022/12/11 11:09:33;;;;;;;38.83;17.37;;;1.20;99.90;;;;;;5063060;28;20529;-57
2022/12/11 11:12:00;;;;;;;40.77;17.43;;;1.20;99.90;;;;;;5071754;28;20827;-57
2022/12/11 11:14:27;;;;;;;40.80;17.00;;;1.20;99.90;;;;;;5071975;28;20444;-56
2022/12/11 11:16:57;;;;;;;34.50;16.53;;;1.20;99.90;;;;;;5071377;28;20468;-58
2022/12/11 11:19:29;;;;;;;37.10;15.17;;;1.10;99.90;;;;;;5071897;28;20443;-56
2022/12/11 11:21:58;;;;;;;37.87;17.23;;;1.10;99.90;;;;;;5071629;28;20884;-58
2022/12/11 11:24:29;;;;;;;41.23;17.83;;;0.90;99.90;;;;;;5064410;28;20928;-60
2022/12/11 11:26:57;;;;;;;39.23;17.77;;;1.00;99.90;;;;;;5060374;28;20958;-57
2022/12/11 11:29:29;;;;;;;43.30;17.47;;;1.10;99.90;;;;;;5066533;28;20482;-59
2022/12/11 11:31:56;;;;;;;44.40;19.47;;;1.10;99.90;;;;;;5059159;28;21106;-64
2022/12/11 11:34:24;;;;;;;46.00;18.93;;;1.20;99.90;;;;;;5058860;28;20448;-61
2022/12/11 11:37:04;;;;;;;43.70;18.80;;;1.10;99.90;;;;;;5059790;28;20474;-63
2022/12/11 11:39:37;;;;;;;37.70;16.77;;;1.10;99.90;;;;;;5064605;28;20447;-58
2022/12/11 11:42:10;;;;;;;44.67;19.03;;;1.20;99.90;;;;;;5070732;28;20450;-58
2022/12/11 11:44:41;;;;;;;39.63;19.13;;;1.30;99.90;;;;;;5062041;28;20455;-58
2022/12/11 11:47:15;;;;;;;39.33;16.70;;;1.30;99.90;;;;;;5065748;28;20524;-57
2022/12/11 11:49:52;;;;;;;42.53;18.27;;;1.30;99.90;;;;;;5068027;28;20477;-58
2022/12/11 11:52:26;;;;;;;42.67;18.20;;;1.40;99.90;;;;;;5068584;28;20468;-58
2022/12/11 11:54:59;;;;;;;40.60;18.50;;;1.30;99.90;;;;;;5063844;28;20438;-58
2022/12/11 11:57:35;;;;;;;36.03;17.00;;;1.30;99.90;;;;;;5054532;28;20476;-57
2022/12/11 12:00:09;;;;;;;39.37;17.17;;;1.30;99.90;;;;;;5054290;28;20444;-58
2022/12/11 12:02:37;;;;;;;39.93;18.33;;;1.40;99.90;;;;;;5054977;28;20455;-58
2022/12/11 12:05:04;;;;;;;39.53;17.70;;;1.30;99.90;;;;;;5054654;28;20448;-57
2022/12/11 12:07:41;;;;;;;43.60;19.10;;;0.90;99.90;;;;;;5062172;28;20474;-58
2022/12/11 12:10:16;;;;;;;38.47;16.90;;;0.80;99.90;;;;;;5061652;28;20487;-57
2022/12/11 12:12:50;;;;;;;43.17;17.47;;;0.90;99.90;;;;;;5054091;28;20456;-59
2022/12/11 12:15:34;;;;;;;42.07;18.27;;;1.00;99.90;;;;;;5054699;28;20463;-59
2022/12/11 12:18:09;;;;;;;41.00;18.10;;;1.10;99.90;;;;;;5054030;28;20467;-57
2022/12/11 12:20:43;;;;;;;38.07;17.07;;;1.10;99.90;;;;;;5063111;28;20444;-58
2022/12/11 12:23:29;;;;;;;38.23;18.00;;;1.20;99.90;;;;;;5073995;28;20459;-57
2022/12/11 12:26:03;;;;;;;43.63;17.83;;;1.30;99.90;;;;;;5073783;28;20447;-58
2022/12/11 12:28:39;;;;;;;45.40;18.93;;;1.30;99.90;;;;;;5074286;28;20540;-58
2022/12/11 12:31:16;;;;;;;38.17;16.00;;;1.30;99.90;;;;;;5074398;28;20481;-58
2022/12/11 12:33:53;;;;;;;41.57;17.03;;;1.40;99.90;;;;;;5074480;28;20435;-59
2022/12/11 12:36:27;;;;;;;39.43;16.30;;;1.40;99.90;;;;;;5073813;28;20520;-57
2022/12/11 12:39:01;;;;;;;37.07;16.90;;;1.20;99.90;;;;;;5062971;28;20440;-59
2022/12/11 12:41:40;;;;;;;36.40;15.03;;;1.20;99.90;;;;;;5053966;28;20463;-58
2022/12/11 12:44:15;;;;;;;32.20;14.30;;;1.10;99.90;;;;;;5053956;28;20448;-59
2022/12/11 12:46:57;;;;;;;32.47;15.63;;;1.10;99.90;;;;;;5053836;28;20931;-59
2022/12/11 12:49:40;;;;;;;30.53;14.73;;;1.30;99.90;;;;;;5053903;28;20491;-59
2022/12/11 12:52:13;;;;;;;32.17;15.33;;;1.30;99.90;;;;;;5051066;28;20460;-59
2022/12/11 12:55:12;;;;;;;33.63;15.80;;;1.40;99.90;;;;;;5053955;28;20455;-59
2022/12/11 12:57:29;;;;;;;35.27;14.60;;;1.30;99.90;;;;;;5053510;28;20510;-59
2022/12/11 12:59:56;;;;;;;29.93;13.47;;;1.40;99.90;;;;;;5054016;28;20447;-60